Time;durP1;ratioP1;P1;durP2;ratioP2;P2;SDS_P1;SDS_P2;PMS_P1;PMS_P2;Temp;Humidity;BMP_temperature;BMP_pressure;BME280_temperature;BME280_humidity;BME280_pressure;Samples;Min_cycle;Max_cycle;Signal;HPM_P1;HPM_P2
2022/11/24 00:01:48;;;;;;;6.63;5.90;;;7.90;99.90;;;;;;4972700;28;20205;-69
2022/11/24 00:04:13;;;;;;;13.73;6.53;;;8.00;99.90;;;;;;4969554;28;20186;-69
2022/11/24 00:06:39;;;;;;;14.17;6.23;;;8.00;99.90;;;;;;4973103;28;20647;-67
2022/11/24 00:09:05;;;;;;;8.40;5.43;;;8.10;99.90;;;;;;4972758;28;20177;-66
2022/11/24 00:11:34;;;;;;;10.70;5.43;;;8.00;99.90;;;;;;4972135;28;20213;-67
2022/11/24 00:14:01;;;;;;;8.70;5.67;;;8.10;99.90;;;;;;4972965;28;20217;-68
2022/11/24 00:16:29;;;;;;;6.27;5.67;;;8.20;99.90;;;;;;4972374;28;20213;-68
2022/11/24 00:18:56;;;;;;;15.70;5.40;;;8.20;99.90;;;;;;4972716;28;20550;-68
2022/11/24 00:21:23;;;;;;;18.40;6.63;;;8.20;99.90;;;;;;4971702;28;20236;-68
2022/11/24 00:23:49;;;;;;;8.67;5.87;;;8.20;99.90;;;;;;4976740;28;20173;-69
2022/11/24 00:26:19;;;;;;;21.47;7.37;;;8.30;99.90;;;;;;4992035;28;20177;-68
2022/11/24 00:28:46;;;;;;;6.50;5.90;;;8.40;99.90;;;;;;4980352;28;20667;-70
2022/11/24 00:31:39;;;;;;;7.23;6.27;;;8.30;99.90;;;;;;4972155;28;20205;-70
2022/11/24 00:34:08;;;;;;;12.93;6.03;;;8.30;99.90;;;;;;4969822;28;20186;-68
2022/11/24 00:36:35;;;;;;;7.67;5.87;;;8.30;99.90;;;;;;4972598;28;20627;-68
2022/11/24 00:39:07;;;;;;;8.30;6.23;;;8.30;99.90;;;;;;4972575;28;20170;-68
2022/11/24 00:41:33;;;;;;;13.13;5.67;;;8.30;99.90;;;;;;4972519;28;20292;-68
2022/11/24 00:43:59;;;;;;;7.53;5.77;;;8.20;99.90;;;;;;4971408;28;20181;-68
2022/11/24 00:46:25;;;;;;;6.53;5.17;;;8.20;99.90;;;;;;4972454;28;20650;-68
2022/11/24 00:48:51;;;;;;;6.73;6.13;;;8.20;99.90;;;;;;4972526;28;20184;-68
2022/11/24 00:51:18;;;;;;;8.07;5.27;;;8.20;99.90;;;;;;4972146;28;20205;-67
2022/11/24 00:53:44;;;;;;;15.40;5.97;;;8.20;99.90;;;;;;4972403;28;20681;-68
2022/11/24 00:56:10;;;;;;;5.70;5.37;;;8.10;99.90;;;;;;4972385;28;20178;-68
2022/11/24 00:58:36;;;;;;;6.60;5.97;;;8.10;99.90;;;;;;4971946;28;20181;-69
2022/11/24 01:01:07;;;;;;;6.37;5.97;;;8.10;99.90;;;;;;4971642;28;20212;-69
2022/11/24 01:03:34;;;;;;;6.43;5.70;;;8.10;99.90;;;;;;4972148;28;20202;-68
2022/11/24 01:06:07;;;;;;;10.70;6.07;;;8.10;99.90;;;;;;4971894;28;20679;-68
2022/11/24 01:08:35;;;;;;;7.50;6.23;;;8.10;99.90;;;;;;4972549;28;20181;-68
2022/11/24 01:11:25;;;;;;;10.23;5.40;;;8.20;99.90;;;;;;4971637;28;20209;-68
2022/11/24 01:13:56;;;;;;;6.23;5.63;;;8.10;99.90;;;;;;4972324;28;20178;-69
2022/11/24 01:16:27;;;;;;;10.73;5.80;;;8.20;99.90;;;;;;4972034;28;20166;-68
2022/11/24 01:18:53;;;;;;;11.30;5.77;;;8.30;99.90;;;;;;4970875;28;20182;-69
2022/11/24 01:21:20;;;;;;;11.33;5.87;;;8.40;99.90;;;;;;4994519;23;20719;-68
2022/11/24 01:23:46;;;;;;;7.33;6.10;;;8.40;99.90;;;;;;4972526;28;20552;-69
2022/11/24 01:26:14;;;;;;;13.83;6.03;;;8.50;99.90;;;;;;4973286;28;20173;-69
2022/11/24 01:28:40;;;;;;;7.13;6.43;;;8.50;99.90;;;;;;4974611;28;20170;-69
2022/11/24 01:31:06;;;;;;;6.40;5.97;;;8.50;99.90;;;;;;4974171;28;20343;-69
2022/11/24 01:33:33;;;;;;;8.47;5.83;;;8.50;99.90;;;;;;4973206;28;20175;-69
2022/11/24 01:36:00;;;;;;;13.20;6.43;;;8.50;99.90;;;;;;4975126;28;20170;-69
2022/11/24 01:38:26;;;;;;;14.07;5.53;;;8.40;99.90;;;;;;4975625;28;20193;-68
2022/11/24 01:41:17;;;;;;;15.70;6.13;;;8.40;99.90;;;;;;4975547;28;20189;-69
2022/11/24 01:43:44;;;;;;;8.63;6.13;;;8.30;99.90;;;;;;4975710;28;20628;-69
2022/11/24 01:46:41;;;;;;;5.67;5.27;;;8.20;99.90;;;;;;4975566;28;20580;-68
2022/11/24 01:49:26;;;;;;;7.57;5.37;;;8.10;99.90;;;;;;4975464;28;20178;-69
2022/11/24 01:52:18;;;;;;;5.47;4.97;;;8.10;99.90;;;;;;4975428;28;20409;-69
2022/11/24 01:55:07;;;;;;;9.93;5.13;;;8.10;99.90;;;;;;4973453;28;20635;-68
2022/11/24 01:57:44;;;;;;;6.00;5.40;;;8.20;99.90;;;;;;4956195;28;20178;-68
2022/11/24 02:00:12;;;;;;;5.70;5.30;;;8.20;99.90;;;;;;4956024;29;20174;-69
2022/11/24 02:02:38;;;;;;;8.20;5.60;;;8.30;99.90;;;;;;4956342;28;20652;-68
2022/11/24 02:05:29;;;;;;;15.73;6.57;;;8.30;99.90;;;;;;4969569;28;20177;-68
2022/11/24 02:07:57;;;;;;;10.53;4.77;;;8.40;99.90;;;;;;4969738;28;20240;-69
2022/11/24 02:10:22;;;;;;;15.07;7.60;;;8.30;99.90;;;;;;4976463;28;20308;-69
2022/11/24 02:12:52;;;;;;;6.07;5.77;;;8.30;99.90;;;;;;4975090;28;20284;-69
2022/11/24 02:15:18;;;;;;;6.13;5.63;;;8.30;99.90;;;;;;4974823;28;20253;-69
2022/11/24 02:17:44;;;;;;;5.70;5.30;;;8.20;99.90;;;;;;4975274;28;20192;-68
2022/11/24 02:20:12;;;;;;;10.27;6.70;;;8.10;99.90;;;;;;4974944;28;20544;-68
2022/11/24 02:22:59;;;;;;;15.83;6.50;;;8.10;99.90;;;;;;4974764;28;20224;-69
2022/11/24 02:25:31;;;;;;;13.43;6.80;;;8.10;99.90;;;;;;4975134;28;20185;-69
2022/11/24 02:27:59;;;;;;;14.57;6.20;;;8.00;99.90;;;;;;4975087;28;20210;-68
2022/11/24 02:30:25;;;;;;;7.87;6.13;;;8.00;99.90;;;;;;4974802;28;20598;-69
2022/11/24 02:32:51;;;;;;;9.47;6.00;;;8.00;99.90;;;;;;4975015;28;20200;-68
2022/11/24 02:35:16;;;;;;;6.17;5.77;;;8.00;99.90;;;;;;4974542;28;20719;-68
2022/11/24 02:37:42;;;;;;;8.50;6.00;;;8.00;99.90;;;;;;4975249;28;20213;-69
2022/11/24 02:40:08;;;;;;;10.63;5.60;;;7.90;99.90;;;;;;4975785;28;20181;-69
2022/11/24 02:42:39;;;;;;;8.40;5.73;;;7.90;99.90;;;;;;4974549;28;20202;-68
2022/11/24 02:45:05;;;;;;;7.13;6.00;;;7.80;99.90;;;;;;4974514;28;20184;-69
2022/11/24 02:47:31;;;;;;;7.67;5.53;;;7.70;99.90;;;;;;4973705;28;20182;-69
2022/11/24 02:49:56;;;;;;;7.93;5.83;;;7.60;99.90;;;;;;4974446;28;20206;-68
2022/11/24 02:52:22;;;;;;;14.40;6.13;;;7.50;99.90;;;;;;4974416;28;20232;-68
2022/11/24 02:54:48;;;;;;;6.17;5.80;;;7.50;99.90;;;;;;4974712;28;20177;-68
2022/11/24 02:57:14;;;;;;;5.47;5.20;;;7.40;99.90;;;;;;4974213;28;20184;-68
2022/11/24 02:59:39;;;;;;;6.20;5.20;;;7.30;99.90;;;;;;4973119;28;20648;-69
2022/11/24 03:02:05;;;;;;;9.63;5.67;;;7.30;99.90;;;;;;4974192;28;20194;-68
2022/11/24 03:04:31;;;;;;;14.07;5.17;;;7.20;99.90;;;;;;4974094;28;20181;-68
2022/11/24 03:06:57;;;;;;;10.43;6.40;;;7.20;99.90;;;;;;4973949;28;20698;-68
2022/11/24 03:09:22;;;;;;;6.43;5.93;;;7.20;99.90;;;;;;4974154;28;20663;-68
2022/11/24 03:11:48;;;;;;;6.57;6.00;;;7.20;99.90;;;;;;4973941;28;20209;-68
2022/11/24 03:14:14;;;;;;;6.73;6.17;;;7.20;99.90;;;;;;4974081;28;20173;-68
2022/11/24 03:16:39;;;;;;;8.13;6.27;;;7.20;99.90;;;;;;4973891;28;20184;-68
2022/11/24 03:19:05;;;;;;;7.20;6.60;;;7.20;99.90;;;;;;4973619;28;20185;-68
2022/11/24 03:21:30;;;;;;;6.90;6.20;;;7.30;99.90;;;;;;4973604;28;20209;-68
2022/11/24 03:23:56;;;;;;;6.03;5.53;;;7.30;99.90;;;;;;4973901;28;20181;-68
2022/11/24 03:26:23;;;;;;;16.00;7.17;;;7.40;99.90;;;;;;4973690;28;20192;-68
2022/11/24 03:28:51;;;;;;;6.70;6.20;;;7.50;99.90;;;;;;4973693;28;20235;-68
2022/11/24 03:31:17;;;;;;;18.43;5.87;;;7.60;99.90;;;;;;4973223;28;20661;-68
2022/11/24 03:33:42;;;;;;;6.37;5.97;;;7.70;99.90;;;;;;4972321;28;20178;-68
2022/11/24 03:36:08;;;;;;;10.40;6.07;;;7.70;99.90;;;;;;4973590;28;20174;-69
2022/11/24 03:38:34;;;;;;;5.87;5.37;;;7.80;99.90;;;;;;4973264;28;20177;-68
2022/11/24 03:40:59;;;;;;;14.60;5.87;;;7.80;99.90;;;;;;4973559;28;20181;-68
2022/11/24 03:43:25;;;;;;;14.70;5.93;;;7.80;99.90;;;;;;4973403;28;20611;-68
2022/11/24 03:45:51;;;;;;;6.77;5.57;;;7.80;99.90;;;;;;4973361;28;20220;-68
2022/11/24 03:48:20;;;;;;;8.77;5.87;;;7.80;99.90;;;;;;4973209;28;20177;-68
2022/11/24 03:50:55;;;;;;;12.87;5.83;;;7.80;99.90;;;;;;4973120;28;20203;-68
2022/11/24 03:53:22;;;;;;;9.33;5.63;;;7.80;99.90;;;;;;4973029;28;20176;-68
2022/11/24 03:55:48;;;;;;;7.97;5.97;;;7.80;99.90;;;;;;4973430;28;20627;-70
2022/11/24 03:58:13;;;;;;;6.90;6.20;;;7.80;99.90;;;;;;4973272;28;20174;-67
2022/11/24 04:00:39;;;;;;;9.60;6.07;;;7.90;99.90;;;;;;4973008;28;20182;-67
2022/11/24 04:03:05;;;;;;;9.97;5.53;;;7.90;99.90;;;;;;4972696;28;20293;-68
2022/11/24 04:05:32;;;;;;;11.50;6.17;;;8.00;99.90;;;;;;4972568;28;20268;-68
2022/11/24 04:08:01;;;;;;;14.50;6.20;;;8.00;99.90;;;;;;4973031;28;20181;-68
2022/11/24 04:10:27;;;;;;;5.53;5.13;;;8.00;99.90;;;;;;4972105;28;20208;-68
2022/11/24 04:12:53;;;;;;;11.03;6.73;;;8.00;99.90;;;;;;4972408;28;20233;-69
2022/11/24 04:15:20;;;;;;;8.93;6.13;;;8.10;99.90;;;;;;4972937;28;20659;-69
2022/11/24 04:17:46;;;;;;;7.63;6.70;;;8.10;99.90;;;;;;4972947;28;20174;-69
2022/11/24 04:20:12;;;;;;;6.03;5.50;;;8.10;99.90;;;;;;4972242;28;20182;-68
2022/11/24 04:22:38;;;;;;;7.83;5.90;;;8.10;99.90;;;;;;4972309;28;20213;-69
2022/11/24 04:25:05;;;;;;;5.80;5.40;;;8.20;99.90;;;;;;4971461;28;20188;-69
2022/11/24 04:27:35;;;;;;;12.97;6.80;;;8.20;99.90;;;;;;4972485;28;20177;-68
2022/11/24 04:30:00;;;;;;;6.50;5.90;;;8.30;99.90;;;;;;4972416;28;20209;-68
2022/11/24 04:32:26;;;;;;;16.53;6.43;;;8.30;99.90;;;;;;4972478;28;20569;-68
2022/11/24 04:34:52;;;;;;;6.60;6.10;;;8.40;99.90;;;;;;4972783;28;20632;-68
2022/11/24 04:37:17;;;;;;;6.00;5.70;;;8.40;99.90;;;;;;4971669;28;20221;-68
2022/11/24 04:39:45;;;;;;;8.60;5.70;;;8.40;99.90;;;;;;4972410;28;20173;-69
2022/11/24 04:42:11;;;;;;;13.37;6.60;;;8.50;99.90;;;;;;4972609;28;20260;-68
2022/11/24 04:44:36;;;;;;;8.40;6.20;;;8.60;99.90;;;;;;4972698;28;20356;-69
2022/11/24 04:47:02;;;;;;;9.80;6.03;;;8.60;99.90;;;;;;4972516;28;20243;-68
2022/11/24 04:49:27;;;;;;;6.40;6.00;;;8.70;99.90;;;;;;4972119;28;20706;-69
2022/11/24 04:51:53;;;;;;;8.87;6.50;;;8.80;99.90;;;;;;4972354;28;20635;-69
2022/11/24 04:54:19;;;;;;;13.47;6.37;;;8.90;99.90;;;;;;4972554;28;20173;-68
2022/11/24 04:56:48;;;;;;;8.80;6.40;;;8.90;99.90;;;;;;4972420;28;20260;-68
2022/11/24 04:59:14;;;;;;;9.47;6.00;;;9.00;99.90;;;;;;4971791;28;20181;-69
2022/11/24 05:01:41;;;;;;;5.77;5.30;;;9.00;99.90;;;;;;4972255;28;20227;-69
2022/11/24 05:04:13;;;;;;;7.90;5.90;;;9.10;99.90;;;;;;4971951;28;20268;-68
2022/11/24 05:06:39;;;;;;;9.63;6.17;;;9.10;99.90;;;;;;4969481;28;20181;-69
2022/11/24 05:09:07;;;;;;;7.20;5.87;;;9.10;99.90;;;;;;4972182;28;20261;-69
2022/11/24 05:11:33;;;;;;;8.10;6.63;;;9.10;99.90;;;;;;4975485;28;20217;-68
2022/11/24 05:13:59;;;;;;;6.77;5.10;;;9.10;99.90;;;;;;4976415;28;20541;-70
2022/11/24 05:16:24;;;;;;;26.03;7.00;;;9.10;99.90;;;;;;4975668;28;20186;-68
2022/11/24 05:18:50;;;;;;;8.57;6.20;;;9.10;99.90;;;;;;4975857;28;20185;-68
2022/11/24 05:21:15;;;;;;;6.43;5.67;;;9.10;99.90;;;;;;4973942;28;20205;-68
2022/11/24 05:23:41;;;;;;;6.83;5.80;;;9.10;99.90;;;;;;4975805;28;20200;-69
2022/11/24 05:26:07;;;;;;;8.00;5.33;;;9.10;99.90;;;;;;4975982;28;20185;-68
2022/11/24 05:28:33;;;;;;;6.37;5.73;;;9.10;99.90;;;;;;4975578;28;20216;-69
2022/11/24 05:31:03;;;;;;;10.73;6.07;;;9.10;99.90;;;;;;4975227;28;20232;-69
2022/11/24 05:33:29;;;;;;;10.63;6.13;;;9.10;99.90;;;;;;4975673;28;20658;-69
2022/11/24 05:35:58;;;;;;;10.00;6.63;;;9.00;99.90;;;;;;4975426;28;20711;-68
2022/11/24 05:38:25;;;;;;;6.63;6.03;;;9.10;99.90;;;;;;4975371;28;20181;-68
2022/11/24 05:40:50;;;;;;;8.40;6.03;;;9.10;99.90;;;;;;4975120;28;20174;-68
2022/11/24 05:43:16;;;;;;;12.73;7.03;;;9.10;99.90;;;;;;4974727;28;20248;-69
2022/11/24 05:45:42;;;;;;;9.40;6.63;;;9.10;99.90;;;;;;4975464;28;20207;-69
2022/11/24 05:48:11;;;;;;;10.87;5.97;;;9.10;99.90;;;;;;4975786;28;20177;-68
2022/11/24 05:50:37;;;;;;;12.53;6.23;;;9.10;99.90;;;;;;4973561;28;20679;-69
2022/11/24 05:53:08;;;;;;;6.47;5.93;;;9.10;99.90;;;;;;4975159;28;20200;-68
2022/11/24 05:55:34;;;;;;;13.00;6.17;;;9.20;99.90;;;;;;4975433;28;20181;-68
2022/11/24 05:58:05;;;;;;;9.03;5.80;;;9.20;99.90;;;;;;4975348;28;20658;-68
2022/11/24 06:00:32;;;;;;;7.17;5.83;;;9.20;99.90;;;;;;4974719;28;20186;-68
2022/11/24 06:02:59;;;;;;;7.43;6.23;;;9.30;99.90;;;;;;4975141;28;20738;-68
2022/11/24 06:05:26;;;;;;;6.83;6.17;;;9.30;99.90;;;;;;4974884;28;20181;-68
2022/11/24 06:07:52;;;;;;;8.10;5.53;;;9.30;99.90;;;;;;4974590;28;20190;-68
2022/11/24 06:10:19;;;;;;;6.27;5.67;;;9.30;99.90;;;;;;4958824;28;20201;-69
2022/11/24 06:12:45;;;;;;;5.40;5.10;;;9.30;99.90;;;;;;4975040;28;20209;-68
2022/11/24 06:15:11;;;;;;;9.80;5.90;;;9.30;99.90;;;;;;4974590;28;21499;-69
2022/11/24 06:17:37;;;;;;;6.43;5.83;;;9.30;99.90;;;;;;4975201;28;20264;-69
2022/11/24 06:20:05;;;;;;;6.33;5.77;;;9.20;99.90;;;;;;4974508;28;20243;-69
2022/11/24 06:22:30;;;;;;;5.10;4.80;;;9.20;99.90;;;;;;4976602;28;20709;-68
2022/11/24 06:24:56;;;;;;;6.27;5.97;;;9.10;99.90;;;;;;4974561;28;20246;-68
2022/11/24 06:27:22;;;;;;;5.73;5.43;;;9.10;99.90;;;;;;4974605;28;20180;-68
2022/11/24 06:29:47;;;;;;;5.43;5.13;;;9.10;99.90;;;;;;4975009;28;20632;-67
2022/11/24 06:32:13;;;;;;;5.10;4.90;;;9.00;99.90;;;;;;4974624;28;20288;-68
2022/11/24 06:34:39;;;;;;;6.50;5.53;;;9.00;99.90;;;;;;4974860;28;20177;-68
2022/11/24 06:37:05;;;;;;;6.07;5.67;;;8.90;99.90;;;;;;4974750;28;20186;-69
2022/11/24 06:39:31;;;;;;;5.33;4.83;;;8.90;99.90;;;;;;4973119;28;20597;-68
2022/11/24 06:41:57;;;;;;;6.87;5.10;;;8.90;99.90;;;;;;4974549;28;20198;-68
2022/11/24 06:44:22;;;;;;;6.33;5.10;;;8.90;99.90;;;;;;4974769;28;20687;-68
2022/11/24 06:46:48;;;;;;;4.70;4.50;;;8.80;99.90;;;;;;4976063;28;20253;-69
2022/11/24 06:49:14;;;;;;;5.27;4.97;;;8.80;99.90;;;;;;4977501;28;20239;-68
2022/11/24 06:51:40;;;;;;;5.07;4.77;;;8.70;99.90;;;;;;4976726;28;20275;-68
2022/11/24 06:54:07;;;;;;;5.23;5.03;;;8.70;99.90;;;;;;4976239;28;20529;-68
2022/11/24 06:56:33;;;;;;;5.70;5.30;;;8.60;99.90;;;;;;4974280;28;20185;-68
2022/11/24 06:59:00;;;;;;;7.93;5.23;;;8.50;99.90;;;;;;4974209;28;20204;-68
2022/11/24 07:01:27;;;;;;;5.40;5.00;;;8.40;99.90;;;;;;4973388;28;20251;-68
2022/11/24 07:03:54;;;;;;;5.23;5.03;;;8.40;99.90;;;;;;4974253;28;20216;-68
2022/11/24 07:06:21;;;;;;;5.73;5.37;;;8.30;99.90;;;;;;4973572;28;20177;-68
2022/11/24 07:08:47;;;;;;;5.50;5.30;;;8.20;99.90;;;;;;4958927;28;20235;-68
2022/11/24 07:11:16;;;;;;;5.43;4.93;;;8.00;99.90;;;;;;4973246;28;20217;-68
2022/11/24 07:13:43;;;;;;;5.40;4.97;;;8.00;99.90;;;;;;4977060;28;20178;-68
2022/11/24 07:16:18;;;;;;;6.40;5.80;;;7.90;99.90;;;;;;4976755;28;20268;-68
2022/11/24 07:18:45;;;;;;;5.40;5.20;;;7.90;99.90;;;;;;4976927;28;20605;-68
2022/11/24 07:21:14;;;;;;;11.27;6.47;;;7.90;99.90;;;;;;4976103;28;20177;-69
2022/11/24 07:23:40;;;;;;;6.50;5.80;;;7.80;99.90;;;;;;4973864;28;20258;-68
2022/11/24 07:26:07;;;;;;;5.90;5.60;;;7.80;99.90;;;;;;4974052;28;20260;-69
2022/11/24 07:28:33;;;;;;;5.70;5.50;;;7.80;99.90;;;;;;4971186;28;20601;-69
2022/11/24 07:31:23;;;;;;;6.33;5.80;;;7.70;99.90;;;;;;4971735;28;20205;-69
2022/11/24 07:33:51;;;;;;;6.60;6.20;;;7.80;99.90;;;;;;4971233;28;20595;-69
2022/11/24 07:36:17;;;;;;;5.70;5.40;;;7.90;99.90;;;;;;4973199;28;20208;-69
2022/11/24 07:38:42;;;;;;;5.33;5.07;;;7.90;99.90;;;;;;4973367;28;20198;-69
2022/11/24 07:41:10;;;;;;;7.77;7.27;;;8.00;99.90;;;;;;4972910;28;20173;-69
2022/11/24 07:43:36;;;;;;;6.13;5.10;;;8.00;99.90;;;;;;4969814;28;20276;-69
2022/11/24 07:46:03;;;;;;;5.07;4.77;;;8.10;99.90;;;;;;4973072;28;20231;-69
2022/11/24 07:48:28;;;;;;;6.50;6.10;;;8.10;99.90;;;;;;4973060;28;20212;-69
2022/11/24 07:50:54;;;;;;;6.87;6.47;;;8.10;99.90;;;;;;4972725;28;20243;-69
2022/11/24 07:53:20;;;;;;;6.47;6.00;;;8.10;99.90;;;;;;4972906;28;20284;-69
2022/11/24 07:55:53;;;;;;;5.67;5.23;;;8.20;99.90;;;;;;4972964;28;20165;-69
2022/11/24 07:58:19;;;;;;;7.13;6.17;;;8.20;99.90;;;;;;4975625;28;20177;-68
2022/11/24 08:00:44;;;;;;;6.60;6.00;;;8.30;99.90;;;;;;4976929;28;20224;-68
2022/11/24 08:03:10;;;;;;;6.60;6.07;;;8.40;99.90;;;;;;4973746;28;20671;-68
2022/11/24 08:05:35;;;;;;;6.93;6.33;;;8.50;99.90;;;;;;4972288;28;20589;-68
2022/11/24 08:08:01;;;;;;;10.13;7.00;;;8.60;99.90;;;;;;4972776;28;20184;-68
2022/11/24 08:10:27;;;;;;;7.03;6.43;;;8.60;99.90;;;;;;4972175;28;20205;-68
2022/11/24 08:12:52;;;;;;;7.07;6.40;;;8.60;99.90;;;;;;4972568;28;20564;-68
2022/11/24 08:15:18;;;;;;;7.00;6.60;;;8.60;99.90;;;;;;4972337;28;20610;-68
2022/11/24 08:17:43;;;;;;;7.53;6.83;;;8.60;99.90;;;;;;4972642;28;20185;-68
2022/11/24 08:20:09;;;;;;;7.70;6.10;;;8.70;99.90;;;;;;4972225;28;20284;-68
2022/11/24 08:22:35;;;;;;;5.83;5.57;;;8.80;99.90;;;;;;4972223;28;20225;-68
2022/11/24 08:25:00;;;;;;;5.83;5.27;;;8.90;99.90;;;;;;4972655;28;20173;-68
2022/11/24 08:27:26;;;;;;;10.73;6.03;;;9.00;99.90;;;;;;4972454;28;20178;-68
2022/11/24 08:29:52;;;;;;;5.57;5.10;;;9.10;99.90;;;;;;4972417;28;20181;-68
2022/11/24 08:32:17;;;;;;;5.23;4.77;;;9.40;99.90;;;;;;4972474;28;20244;-68
2022/11/24 08:34:43;;;;;;;6.17;5.70;;;9.70;99.90;;;;;;4972759;28;20256;-69
2022/11/24 08:37:08;;;;;;;6.70;6.07;;;9.80;99.90;;;;;;4972615;28;20181;-68
2022/11/24 08:39:34;;;;;;;5.80;5.37;;;9.90;99.90;;;;;;4972131;28;20540;-68
2022/11/24 08:41:59;;;;;;;7.53;5.67;;;9.90;99.90;;;;;;4972290;28;20201;-68
2022/11/24 08:44:27;;;;;;;6.10;5.70;;;10.00;99.90;;;;;;4973247;28;20188;-68
2022/11/24 08:46:54;;;;;;;5.00;4.70;;;10.00;99.90;;;;;;4976781;28;20188;-68
2022/11/24 08:49:21;;;;;;;7.33;5.17;;;10.10;99.90;;;;;;4976146;28;20245;-68
2022/11/24 08:51:47;;;;;;;5.20;4.80;;;10.10;99.90;;;;;;4976528;28;20701;-67
2022/11/24 08:54:14;;;;;;;5.33;5.03;;;10.20;99.90;;;;;;4976518;28;20245;-68
2022/11/24 08:56:40;;;;;;;5.77;5.47;;;10.20;99.90;;;;;;4976218;28;20550;-68
2022/11/24 08:59:06;;;;;;;11.20;5.43;;;10.20;99.90;;;;;;4976444;28;20181;-68
2022/11/24 09:01:32;;;;;;;9.80;5.80;;;10.20;99.90;;;;;;4976115;28;20212;-68
2022/11/24 09:03:57;;;;;;;5.80;4.87;;;10.20;99.90;;;;;;4976057;28;20211;-68
2022/11/24 09:06:26;;;;;;;6.33;5.83;;;10.30;99.90;;;;;;4976185;28;20534;-67
2022/11/24 09:08:55;;;;;;;10.70;6.20;;;10.30;99.90;;;;;;4976274;28;20640;-68
2022/11/24 09:11:22;;;;;;;5.20;4.73;;;10.30;99.90;;;;;;4975419;28;20236;-67
2022/11/24 09:13:48;;;;;;;5.47;5.07;;;10.20;99.90;;;;;;4976388;28;20181;-68
2022/11/24 09:16:16;;;;;;;5.30;4.90;;;10.20;99.90;;;;;;4975891;28;20182;-67
2022/11/24 09:18:43;;;;;;;8.77;5.70;;;10.10;99.90;;;;;;4975901;28;20709;-68
2022/11/24 09:21:17;;;;;;;5.53;5.03;;;10.10;99.90;;;;;;4975631;28;20204;-67
2022/11/24 09:23:45;;;;;;;12.10;5.50;;;10.00;99.90;;;;;;4976085;28;20180;-68
2022/11/24 09:26:16;;;;;;;7.40;5.97;;;10.10;99.90;;;;;;4975789;28;20243;-68
2022/11/24 09:28:42;;;;;;;5.23;4.83;;;10.10;99.90;;;;;;4975577;28;20193;-67
2022/11/24 09:31:11;;;;;;;6.33;5.27;;;10.10;99.90;;;;;;4975156;28;20202;-68
2022/11/24 09:33:37;;;;;;;6.50;6.10;;;10.10;99.90;;;;;;4975453;28;20535;-68
2022/11/24 09:36:03;;;;;;;5.50;4.97;;;10.10;99.90;;;;;;4975804;28;20647;-68
2022/11/24 09:38:29;;;;;;;5.10;4.60;;;10.00;99.90;;;;;;4975354;28;20255;-67
2022/11/24 09:40:55;;;;;;;6.43;6.03;;;9.90;99.90;;;;;;4975339;28;20181;-67
2022/11/24 09:43:38;;;;;;;5.10;4.80;;;9.90;99.90;;;;;;4975362;28;20205;-68
2022/11/24 09:46:26;;;;;;;9.33;4.87;;;9.90;99.90;;;;;;4975364;28;20181;-68
2022/11/24 09:48:54;;;;;;;8.83;5.43;;;9.90;99.90;;;;;;4975624;28;20185;-68
2022/11/24 09:51:24;;;;;;;6.60;6.10;;;9.90;99.90;;;;;;4974798;28;20671;-68
2022/11/24 09:53:56;;;;;;;11.43;5.60;;;9.90;99.90;;;;;;4975622;28;20173;-68
2022/11/24 09:56:27;;;;;;;6.10;5.27;;;9.90;99.90;;;;;;4974829;28;20729;-68
2022/11/24 09:59:11;;;;;;;6.23;4.90;;;9.90;99.90;;;;;;4973666;28;20253;-68
2022/11/24 10:01:40;;;;;;;8.83;5.40;;;9.90;99.90;;;;;;4975176;28;20753;-68
2022/11/24 10:04:38;;;;;;;16.43;5.53;;;9.90;99.90;;;;;;4974020;28;20185;-67
2022/11/24 10:07:29;;;;;;;11.57;5.27;;;9.90;99.90;;;;;;4970030;28;20285;-68
2022/11/24 10:10:33;;;;;;;5.20;4.83;;;9.80;99.90;;;;;;4971014;28;20225;-68
2022/11/24 10:13:16;;;;;;;5.70;5.30;;;9.80;99.90;;;;;;4974445;28;20212;-68
2022/11/24 10:16:11;;;;;;;5.60;5.23;;;9.80;99.90;;;;;;4973719;28;20213;-68
2022/11/24 10:18:58;;;;;;;6.43;5.30;;;9.80;99.90;;;;;;4974636;28;20178;-67
2022/11/24 10:22:05;;;;;;;6.47;5.23;;;9.80;99.90;;;;;;4967626;28;20255;-68
2022/11/24 10:24:54;;;;;;;6.60;4.80;;;9.80;99.90;;;;;;4941927;28;20205;-67
2022/11/24 10:27:27;;;;;;;5.07;4.73;;;9.90;99.90;;;;;;4974798;28;20169;-67
2022/11/24 10:29:53;;;;;;;7.67;5.33;;;9.90;99.90;;;;;;4974533;28;20185;-68
2022/11/24 10:32:23;;;;;;;5.53;5.13;;;9.90;99.90;;;;;;4974694;28;20288;-68
2022/11/24 10:34:52;;;;;;;5.67;5.10;;;9.90;99.90;;;;;;4974456;28;20682;-68
2022/11/24 10:37:35;;;;;;;5.10;4.90;;;9.90;99.90;;;;;;4974688;28;20209;-67
2022/11/24 10:40:11;;;;;;;7.03;4.67;;;9.90;99.90;;;;;;4974178;28;20231;-68
2022/11/24 10:42:37;;;;;;;5.27;4.97;;;10.00;99.90;;;;;;4974645;28;20200;-68
2022/11/24 10:45:11;;;;;;;10.90;5.33;;;10.00;99.90;;;;;;4974401;28;20192;-67
2022/11/24 10:47:38;;;;;;;7.80;4.87;;;10.10;99.90;;;;;;4974455;28;20235;-68
2022/11/24 10:50:22;;;;;;;5.23;4.73;;;10.20;99.90;;;;;;4974050;28;20177;-68
2022/11/24 10:52:59;;;;;;;6.07;4.87;;;10.30;99.90;;;;;;4974520;28;20240;-67
2022/11/24 10:55:24;;;;;;;6.07;5.43;;;10.40;99.90;;;;;;4973953;28;20526;-68
2022/11/24 10:57:50;;;;;;;5.50;4.67;;;10.80;99.90;;;;;;4974290;28;20224;-68
2022/11/24 11:00:19;;;;;;;5.47;5.07;;;11.20;99.90;;;;;;4974038;28;20669;-68
2022/11/24 11:02:47;;;;;;;4.57;4.30;;;11.70;99.90;;;;;;4974333;28;20209;-68
2022/11/24 11:05:40;;;;;;;5.00;4.60;;;12.10;57.80;;;;;;4973932;28;20639;-68
2022/11/24 11:08:19;;;;;;;5.80;4.80;;;12.40;29.20;;;;;;4973257;28;20230;-68
2022/11/24 11:10:47;;;;;;;4.73;4.13;;;12.70;34.50;;;;;;4973678;28;20209;-69
2022/11/24 11:13:27;;;;;;;5.53;4.07;;;12.70;1.00;;;;;;4973680;28;20263;-68
2022/11/24 11:15:53;;;;;;;4.57;4.27;;;12.50;6.70;;;;;;4974450;28;20196;-68
2022/11/24 11:18:20;;;;;;;6.73;4.37;;;12.40;1.00;;;;;;4973774;28;20184;-68
2022/11/24 11:20:57;;;;;;;6.83;4.70;;;12.40;16.50;;;;;;4971968;28;20189;-68
2022/11/24 11:23:29;;;;;;;12.50;5.13;;;12.30;16.00;;;;;;4973303;28;20189;-66
2022/11/24 11:26:18;;;;;;;5.83;5.23;;;12.30;34.70;;;;;;4973743;28;20197;-66
2022/11/24 11:28:59;;;;;;;17.23;4.07;;;12.40;5.10;;;;;;4972207;28;20192;-65
2022/11/24 11:31:25;;;;;;;7.37;3.83;;;12.40;24.80;;;;;;4973050;28;20296;-66
2022/11/24 11:34:00;;;;;;;4.33;4.03;;;12.40;1.00;;;;;;4973311;28;20268;-65
2022/11/24 11:36:27;;;;;;;4.70;4.00;;;12.20;1.00;;;;;;4961146;28;20181;-67
2022/11/24 11:38:52;;;;;;;6.53;4.27;;;12.10;11.50;;;;;;4954419;28;20178;-67
2022/11/24 11:41:28;;;;;;;4.43;4.07;;;12.00;24.90;;;;;;4960112;28;20256;-67
2022/11/24 11:44:18;;;;;;;4.23;3.93;;;12.00;26.20;;;;;;4973671;28;20173;-68
2022/11/24 11:46:44;;;;;;;7.83;4.30;;;12.10;30.00;;;;;;4973268;28;20197;-67
2022/11/24 11:49:12;;;;;;;4.70;4.40;;;12.10;21.10;;;;;;4973273;28;20173;-69
2022/11/24 11:51:43;;;;;;;6.93;5.00;;;12.10;23.30;;;;;;4972880;28;20320;-67
2022/11/24 11:54:41;;;;;;;5.93;4.17;;;12.10;35.60;;;;;;4972125;28;20196;-67
2022/11/24 11:57:16;;;;;;;6.27;4.00;;;12.20;37.60;;;;;;4940262;28;20197;-68
2022/11/24 12:00:12;;;;;;;4.03;3.73;;;12.30;24.40;;;;;;4973188;28;20180;-68
2022/11/24 12:02:49;;;;;;;4.23;3.93;;;12.20;7.10;;;;;;4972938;28;20201;-68
2022/11/24 12:05:28;;;;;;;4.17;3.87;;;12.40;31.40;;;;;;4973156;28;20177;-68
2022/11/24 12:08:21;;;;;;;9.47;4.50;;;12.70;16.60;;;;;;4973051;28;20506;-68
2022/11/24 12:11:01;;;;;;;5.33;4.17;;;12.90;1.00;;;;;;4974743;28;20790;-67
2022/11/24 12:13:32;;;;;;;9.70;4.27;;;12.90;1.00;;;;;;4977843;28;20177;-67
2022/11/24 12:16:26;;;;;;;4.40;4.10;;;13.00;1.00;;;;;;4973127;28;20165;-67
2022/11/24 12:19:22;;;;;;;4.50;4.10;;;13.10;1.00;;;;;;4953287;28;20193;-67
2022/11/24 12:22:01;;;;;;;3.90;3.70;;;13.30;1.00;;;;;;4976592;28;20225;-67
2022/11/24 12:24:56;;;;;;;7.50;4.70;;;13.40;1.00;;;;;;4977382;28;20548;-67
2022/11/24 12:27:27;;;;;;;7.47;4.53;;;13.60;1.00;;;;;;4972220;28;20193;-67
2022/11/24 12:29:53;;;;;;;8.67;4.60;;;13.90;1.00;;;;;;4976013;28;20747;-68
2022/11/24 12:32:21;;;;;;;5.97;5.37;;;14.30;1.00;;;;;;4972435;28;20292;-69
2022/11/24 12:34:50;;;;;;;14.90;5.17;;;14.40;99.90;;;;;;4972875;28;20172;-67
2022/11/24 12:37:18;;;;;;;6.70;4.03;;;14.40;1.00;;;;;;4977592;28;20277;-67
2022/11/24 12:39:56;;;;;;;8.50;4.20;;;14.50;1.00;;;;;;4974175;28;20205;-67
2022/11/24 12:42:46;;;;;;;7.70;4.30;;;14.70;1.00;;;;;;4972560;28;20228;-67
2022/11/24 12:45:15;;;;;;;3.47;3.27;;;14.90;1.00;;;;;;4972687;28;20173;-67
2022/11/24 12:48:05;;;;;;;9.00;4.13;;;15.10;1.00;;;;;;4972687;28;20177;-68
2022/11/24 12:50:38;;;;;;;4.00;3.70;;;15.20;1.00;;;;;;4972305;28;20209;-68
2022/11/24 12:53:15;;;;;;;4.43;4.03;;;15.20;1.00;;;;;;4972601;28;20193;-67
2022/11/24 12:55:42;;;;;;;10.70;4.77;;;15.20;1.00;;;;;;4972496;28;20161;-67
2022/11/24 12:58:34;;;;;;;4.73;4.33;;;15.00;1.00;;;;;;4972455;28;20261;-67
2022/11/24 13:01:12;;;;;;;7.33;4.13;;;14.90;1.00;;;;;;4970251;28;20224;-67
2022/11/24 13:04:00;;;;;;;7.33;3.80;;;14.80;1.00;;;;;;4972050;28;20245;-67
2022/11/24 13:06:41;;;;;;;7.70;3.77;;;14.70;1.00;;;;;;4953234;28;20194;-68
2022/11/24 13:09:13;;;;;;;4.10;3.80;;;14.60;1.00;;;;;;4972009;28;20188;-67